Time;durP1;ratioP1;P1;durP2;ratioP2;P2;SDS_P1;SDS_P2;PMS_P1;PMS_P2;Temp;Humidity;BMP_temperature;BMP_pressure;BME280_temperature;BME280_humidity;BME280_pressure;Samples;Min_cycle;Max_cycle;Signal;HPM_P1;HPM_P2
2022/03/04 00:00:00;;;;;;;42.30;7.80;;;;;;;;;;5045805;28;20647;-54
2022/03/04 00:02:26;;;;;;;53.77;9.73;;;;;;;;;;5051299;28;20677;-54
2022/03/04 00:04:53;;;;;;;52.80;10.33;;;;;;;;;;5045925;28;20262;-54
2022/03/04 00:07:19;;;;;;;58.93;10.80;;;;;;;;;;5043593;28;20670;-54
2022/03/04 00:09:45;;;;;;;53.10;9.77;;;;;;;;;;5047944;28;20196;-54
2022/03/04 00:12:11;;;;;;;49.23;9.17;;;;;;;;;;5042540;28;20260;-54
2022/03/04 00:14:37;;;;;;;55.50;10.07;;;;;;;;;;5042719;28;20230;-54
2022/03/04 00:17:03;;;;;;;32.53;6.27;;;;;;;;;;5046015;28;20208;-54
2022/03/04 00:19:29;;;;;;;53.73;9.83;;;;;;;;;;5051331;28;20451;-54
2022/03/04 00:21:55;;;;;;;66.03;11.53;;;;;;;;;;5041574;28;20200;-54
2022/03/04 00:24:21;;;;;;;43.37;7.97;;;;;;;;;;5045201;28;20284;-55
2022/03/04 00:26:47;;;;;;;56.37;10.90;;;;;;;;;;5047602;28;20289;-54
2022/03/04 00:29:14;;;;;;;80.00;14.97;;;;;;;;;;5044017;28;20187;-54
2022/03/04 00:31:40;;;;;;;63.17;10.70;;;;;;;;;;5039679;28;20201;-54
2022/03/04 00:34:07;;;;;;;77.03;13.03;;;;;;;;;;5047260;28;20580;-55
2022/03/04 00:36:33;;;;;;;45.23;8.37;;;;;;;;;;5046658;28;20302;-54
2022/03/04 00:38:59;;;;;;;64.47;11.57;;;;;;;;;;5041296;28;20207;-54
2022/03/04 00:41:25;;;;;;;55.67;10.40;;;;;;;;;;5046372;28;20199;-54
2022/03/04 00:43:52;;;;;;;52.87;9.67;;;;;;;;;;5044060;28;20187;-54
2022/03/04 00:46:18;;;;;;;44.87;7.80;;;;;;;;;;5044084;28;20202;-54
2022/03/04 00:48:45;;;;;;;45.87;8.77;;;;;;;;;;5053900;28;20213;-54
2022/03/04 00:51:11;;;;;;;64.20;11.70;;;;;;;;;;5037999;28;20187;-54
2022/03/04 00:53:37;;;;;;;57.53;10.43;;;;;;;;;;5048326;28;20171;-54
2022/03/04 00:56:03;;;;;;;39.10;7.10;;;;;;;;;;5047615;28;20217;-54
2022/03/04 00:58:29;;;;;;;63.20;11.17;;;;;;;;;;5045482;28;20195;-54
2022/03/04 01:00:55;;;;;;;60.73;11.07;;;;;;;;;;5040967;28;20592;-54
2022/03/04 01:03:21;;;;;;;63.87;11.63;;;;;;;;;;5046590;28;20660;-54
2022/03/04 01:05:47;;;;;;;65.07;12.30;;;;;;;;;;5022914;28;20198;-54
2022/03/04 01:08:13;;;;;;;56.97;10.30;;;;;;;;;;5051977;28;20186;-54
2022/03/04 01:10:39;;;;;;;63.33;11.43;;;;;;;;;;5042747;28;20194;-54
2022/03/04 01:13:05;;;;;;;45.23;8.43;;;;;;;;;;5048679;28;20251;-54
2022/03/04 01:15:31;;;;;;;49.03;8.87;;;;;;;;;;5046989;28;20310;-54
2022/03/04 01:17:57;;;;;;;23.50;4.93;;;;;;;;;;5045948;28;20605;-54
2022/03/04 01:20:23;;;;;;;75.37;13.63;;;;;;;;;;5039816;28;20293;-54
2022/03/04 01:22:49;;;;;;;66.50;11.67;;;;;;;;;;5044435;28;20613;-54
2022/03/04 01:25:15;;;;;;;48.37;8.77;;;;;;;;;;5053253;28;20209;-54
2022/03/04 01:27:42;;;;;;;39.83;7.53;;;;;;;;;;5046897;28;20731;-54
2022/03/04 01:30:09;;;;;;;52.43;9.87;;;;;;;;;;5042828;28;20187;-54
2022/03/04 01:32:35;;;;;;;52.17;9.57;;;;;;;;;;5048012;28;20564;-54
2022/03/04 01:35:01;;;;;;;74.80;13.37;;;;;;;;;;5041292;28;20211;-54
2022/03/04 01:37:27;;;;;;;47.77;9.07;;;;;;;;;;5043218;28;20215;-54
2022/03/04 01:39:53;;;;;;;74.50;13.73;;;;;;;;;;5044873;28;20308;-54
2022/03/04 01:42:19;;;;;;;54.77;9.77;;;;;;;;;;5044951;28;20600;-54
2022/03/04 01:44:46;;;;;;;47.17;8.97;;;;;;;;;;5038782;28;20210;-54
2022/03/04 01:47:12;;;;;;;36.70;7.00;;;;;;;;;;5046427;28;20248;-54
2022/03/04 01:49:40;;;;;;;64.63;11.57;;;;;;;;;;5040049;28;20192;-54
2022/03/04 01:52:06;;;;;;;61.47;11.23;;;;;;;;;;5040475;28;20636;-54
2022/03/04 01:54:32;;;;;;;51.90;9.27;;;;;;;;;;5045211;28;20202;-54
2022/03/04 01:56:58;;;;;;;58.40;10.60;;;;;;;;;;5040922;28;20676;-54
2022/03/04 01:59:24;;;;;;;54.13;9.67;;;;;;;;;;5040759;28;21333;-54
2022/03/04 02:01:51;;;;;;;60.50;11.03;;;;;;;;;;5027679;28;20179;-54
2022/03/04 02:04:19;;;;;;;34.63;6.80;;;;;;;;;;5051117;28;21018;-54
2022/03/04 02:06:45;;;;;;;58.17;10.70;;;;;;;;;;5045467;28;20194;-54
2022/03/04 02:09:11;;;;;;;57.03;10.53;;;;;;;;;;5046521;28;20187;-54
2022/03/04 02:11:38;;;;;;;70.90;12.83;;;;;;;;;;5039765;28;20191;-54
2022/03/04 02:14:05;;;;;;;71.13;13.00;;;;;;;;;;5039925;28;21226;-54
2022/03/04 02:16:39;;;;;;;51.40;8.90;;;;;;;;;;5041647;28;20503;-54
2022/03/04 02:19:05;;;;;;;73.57;13.10;;;;;;;;;;5046168;28;20271;-55
2022/03/04 02:21:32;;;;;;;44.17;8.47;;;;;;;;;;5040999;28;20190;-55
2022/03/04 02:23:58;;;;;;;49.23;9.13;;;;;;;;;;5045579;28;20286;-54
2022/03/04 02:26:24;;;;;;;60.50;10.27;;;;;;;;;;5047572;28;20635;-55
2022/03/04 02:28:53;;;;;;;56.60;10.27;;;;;;;;;;5045062;28;20187;-55
2022/03/04 02:31:20;;;;;;;55.50;10.03;;;;;;;;;;5044057;28;20198;-55
2022/03/04 02:33:47;;;;;;;47.37;8.87;;;;;;;;;;5048239;28;20270;-55
2022/03/04 02:36:13;;;;;;;66.37;11.97;;;;;;;;;;5040063;28;20215;-55
2022/03/04 02:38:39;;;;;;;64.67;11.27;;;;;;;;;;5047701;28;20289;-55
2022/03/04 02:41:05;;;;;;;41.00;7.77;;;;;;;;;;5047370;28;20187;-55
2022/03/04 02:43:31;;;;;;;72.43;13.23;;;;;;;;;;5046402;28;20183;-55
2022/03/04 02:45:57;;;;;;;30.93;5.87;;;;;;;;;;5049730;28;20230;-55
2022/03/04 02:48:23;;;;;;;46.60;8.97;;;;;;;;;;5047080;28;20435;-55
2022/03/04 02:50:49;;;;;;;56.67;10.57;;;;;;;;;;5034962;28;20198;-55
2022/03/04 02:53:15;;;;;;;88.13;15.10;;;;;;;;;;5042074;28;20190;-55
2022/03/04 02:55:41;;;;;;;54.77;9.83;;;;;;;;;;5049688;28;20619;-55
2022/03/04 02:58:07;;;;;;;60.57;10.60;;;;;;;;;;5048708;28;20207;-54
2022/03/04 03:00:34;;;;;;;76.87;13.37;;;;;;;;;;5043700;28;20507;-55
2022/03/04 03:03:00;;;;;;;85.30;14.70;;;;;;;;;;5048007;28;20191;-55
2022/03/04 03:05:26;;;;;;;95.70;16.93;;;;;;;;;;5039960;28;20926;-55
2022/03/04 03:07:52;;;;;;;59.83;10.37;;;;;;;;;;5045984;28;20286;-55
2022/03/04 03:10:17;;;;;;;55.57;10.00;;;;;;;;;;5044607;28;20400;-55
2022/03/04 03:12:44;;;;;;;62.77;10.77;;;;;;;;;;5048950;28;20250;-54
2022/03/04 03:15:10;;;;;;;56.87;9.97;;;;;;;;;;5040988;28;20206;-55
2022/03/04 03:17:36;;;;;;;77.63;13.37;;;;;;;;;;5046707;28;20276;-55
2022/03/04 03:20:03;;;;;;;102.43;17.20;;;;;;;;;;5042288;28;20239;-54
2022/03/04 03:22:29;;;;;;;72.63;13.00;;;;;;;;;;5047337;28;20281;-55
2022/03/04 03:24:55;;;;;;;51.77;9.17;;;;;;;;;;5045656;28;20575;-55
2022/03/04 03:27:21;;;;;;;80.53;13.83;;;;;;;;;;5047260;28;20642;-55
2022/03/04 03:29:47;;;;;;;47.07;8.50;;;;;;;;;;5045204;28;20872;-55
2022/03/04 03:32:14;;;;;;;60.13;11.00;;;;;;;;;;5052216;28;20187;-55
2022/03/04 03:34:40;;;;;;;46.93;8.17;;;;;;;;;;5049797;28;20211;-55
2022/03/04 03:37:07;;;;;;;44.47;7.90;;;;;;;;;;5052003;28;20186;-55
2022/03/04 03:39:32;;;;;;;35.37;6.70;;;;;;;;;;5053076;28;20661;-55
2022/03/04 03:41:59;;;;;;;81.50;13.40;;;;;;;;;;5051759;28;20183;-55
2022/03/04 03:44:25;;;;;;;59.10;10.03;;;;;;;;;;5049502;28;20219;-55
2022/03/04 03:46:51;;;;;;;57.30;10.37;;;;;;;;;;5051373;28;20250;-54
2022/03/04 03:49:17;;;;;;;47.03;8.70;;;;;;;;;;5052934;28;20190;-55
2022/03/04 03:51:43;;;;;;;47.10;8.50;;;;;;;;;;5046393;28;20754;-55
2022/03/04 03:54:09;;;;;;;45.93;8.17;;;;;;;;;;5054608;28;20355;-55
2022/03/04 03:56:34;;;;;;;75.63;13.20;;;;;;;;;;5049832;28;20890;-55
2022/03/04 03:59:00;;;;;;;49.40;8.80;;;;;;;;;;5050554;28;20202;-55
2022/03/04 04:01:26;;;;;;;59.40;10.37;;;;;;;;;;5050251;28;20183;-55
2022/03/04 04:03:53;;;;;;;37.80;7.00;;;;;;;;;;5053417;28;20274;-55
2022/03/04 04:06:19;;;;;;;75.70;13.53;;;;;;;;;;5041872;28;20313;-54
2022/03/04 04:08:45;;;;;;;94.73;12.00;;;;;;;;;;5061709;22;20496;-54
2022/03/04 04:11:12;;;;;;;68.90;11.13;;;;;;;;;;5022903;28;20337;-56
2022/03/04 04:13:38;;;;;;;68.27;10.47;;;;;;;;;;5043756;28;20642;-56
2022/03/04 04:16:04;;;;;;;62.50;9.70;;;;;;;;;;5050905;28;20206;-56
2022/03/04 04:18:30;;;;;;;50.60;8.00;;;;;;;;;;5051135;28;20274;-56
2022/03/04 04:20:56;;;;;;;70.57;11.33;;;;;;;;;;5041718;28;20270;-56
2022/03/04 04:23:22;;;;;;;77.13;12.33;;;;;;;;;;5050793;28;20739;-56
2022/03/04 04:25:47;;;;;;;71.13;11.33;;;;;;;;;;5041813;28;20217;-56
2022/03/04 04:28:13;;;;;;;55.87;8.73;;;;;;;;;;5046163;28;20647;-56
2022/03/04 04:30:39;;;;;;;55.03;8.60;;;;;;;;;;5046743;28;20654;-56
2022/03/04 04:33:05;;;;;;;57.30;9.43;;;;;;;;;;5051062;28;20184;-56
2022/03/04 04:35:31;;;;;;;86.80;13.73;;;;;;;;;;5042130;28;20213;-56
2022/03/04 04:37:57;;;;;;;52.50;8.30;;;;;;;;;;5050369;28;20198;-56
2022/03/04 04:40:23;;;;;;;65.10;10.63;;;;;;;;;;5045213;28;20270;-56
2022/03/04 04:42:49;;;;;;;73.47;11.17;;;;;;;;;;5044816;28;20190;-56
2022/03/04 04:45:15;;;;;;;75.87;12.20;;;;;;;;;;5040176;28;20215;-56
2022/03/04 04:47:41;;;;;;;63.10;9.77;;;;;;;;;;5051994;28;20187;-56
2022/03/04 04:50:07;;;;;;;122.57;19.27;;;;;;;;;;5038136;28;20691;-56
2022/03/04 04:52:33;;;;;;;78.57;12.30;;;;;;;;;;5031977;28;20893;-55
2022/03/04 04:54:59;;;;;;;50.20;7.73;;;;;;;;;;5034154;28;20207;-56
2022/03/04 04:57:25;;;;;;;80.37;12.33;;;;;;;;;;5041617;28;20182;-56
2022/03/04 04:59:51;;;;;;;59.03;9.13;;;;;;;;;;5044454;28;20193;-56
2022/03/04 05:02:17;;;;;;;78.40;12.17;;;;;;;;;;5044920;28;20279;-56
2022/03/04 05:04:43;;;;;;;69.50;10.67;;;;;;;;;;5046751;28;20207;-56
2022/03/04 05:07:09;;;;;;;55.27;8.63;;;;;;;;;;5048910;28;20297;-56
2022/03/04 05:09:35;;;;;;;89.37;13.80;;;;;;;;;;5041756;28;20208;-56
2022/03/04 05:12:01;;;;;;;63.73;9.73;;;;;;;;;;5047672;28;20186;-56
2022/03/04 05:14:27;;;;;;;66.57;10.10;;;;;;;;;;5037668;28;21337;-56
2022/03/04 05:16:53;;;;;;;63.90;9.80;;;;;;;;;;5046071;28;20605;-55
2022/03/04 05:19:19;;;;;;;74.80;11.47;;;;;;;;;;5047021;28;20187;-56
2022/03/04 05:21:45;;;;;;;37.30;5.67;;;;;;;;;;5049803;28;20642;-56
2022/03/04 05:24:11;;;;;;;57.03;8.80;;;;;;;;;;5050047;28;20896;-56
2022/03/04 05:26:39;;;;;;;84.33;13.17;;;;;;;;;;5041791;28;20211;-56
2022/03/04 05:29:09;;;;;;;85.63;13.23;;;;;;;;;;5043101;28;20268;-56
2022/03/04 05:31:35;;;;;;;49.20;7.40;;;;;;;;;;5044230;28;20232;-56
2022/03/04 05:34:01;;;;;;;77.43;11.90;;;;;;;;;;5044781;28;20190;-56
2022/03/04 05:36:27;;;;;;;71.70;11.17;;;;;;;;;;5042347;28;20555;-56
2022/03/04 05:38:53;;;;;;;53.90;8.27;;;;;;;;;;5047964;28;20187;-56
2022/03/04 05:41:20;;;;;;;81.93;12.33;;;;;;;;;;5037945;28;20191;-56
2022/03/04 05:43:46;;;;;;;79.43;12.20;;;;;;;;;;5027437;28;20678;-56
2022/03/04 05:46:13;;;;;;;52.30;8.23;;;;;;;;;;5042167;28;20325;-56
2022/03/04 05:48:39;;;;;;;63.57;9.83;;;;;;;;;;5042254;28;20216;-56
2022/03/04 05:51:05;;;;;;;59.93;9.23;;;;;;;;;;5046169;28;20203;-56
2022/03/04 05:53:31;;;;;;;103.77;16.30;;;;;;;;;;5042641;28;20761;-56
2022/03/04 05:55:57;;;;;;;65.43;9.87;;;;;;;;;;5051777;28;20194;-56
2022/03/04 05:58:23;;;;;;;94.73;14.23;;;;;;;;;;5044453;28;20275;-56
2022/03/04 06:00:49;;;;;;;63.43;9.70;;;;;;;;;;5046235;28;20220;-56
2022/03/04 06:03:15;;;;;;;84.83;13.30;;;;;;;;;;5045397;28;21134;-56
2022/03/04 06:05:42;;;;;;;57.20;8.53;;;;;;;;;;5053214;28;20232;-56
2022/03/04 06:08:08;;;;;;;50.97;7.53;;;;;;;;;;5060321;28;20175;-56
2022/03/04 06:10:34;;;;;;;48.60;7.27;;;;;;;;;;5058910;28;20627;-56
2022/03/04 06:13:00;;;;;;;53.37;7.97;;;;;;;;;;5059616;28;20675;-56
2022/03/04 06:15:26;;;;;;;54.07;8.50;;;;;;;;;;5042662;28;20576;-56
2022/03/04 06:17:52;;;;;;;60.43;9.53;;;;;;;;;;5044831;28;20188;-58
2022/03/04 06:20:18;;;;;;;80.67;12.67;;;;;;;;;;5027306;28;20576;-56
2022/03/04 06:22:45;;;;;;;57.47;8.57;;;;;;;;;;5062223;28;20206;-56
2022/03/04 06:25:11;;;;;;;79.87;12.00;;;;;;;;;;5048633;28;20435;-57
2022/03/04 06:27:37;;;;;;;211.10;31.77;;;;;;;;;;5038756;28;20179;-57
2022/03/04 06:30:04;;;;;;;88.93;14.37;;;;;;;;;;5037202;28;20290;-56
2022/03/04 06:32:30;;;;;;;61.50;9.17;;;;;;;;;;5032420;28;20187;-56
2022/03/04 06:34:57;;;;;;;104.17;16.10;;;;;;;;;;5035694;28;20634;-57
2022/03/04 06:37:24;;;;;;;61.80;9.43;;;;;;;;;;5040588;28;20189;-57
2022/03/04 06:39:50;;;;;;;70.97;10.97;;;;;;;;;;5051386;28;20187;-56
2022/03/04 06:42:16;;;;;;;48.63;7.77;;;;;;;;;;5044904;28;20194;-57
2022/03/04 06:44:42;;;;;;;112.13;17.27;;;;;;;;;;5041111;28;20203;-57
2022/03/04 06:47:08;;;;;;;62.47;9.60;;;;;;;;;;5050086;28;20190;-57
2022/03/04 06:49:35;;;;;;;82.17;12.43;;;;;;;;;;5044136;28;20734;-57
2022/03/04 06:52:01;;;;;;;87.87;13.67;;;;;;;;;;5041780;28;20198;-56
2022/03/04 06:54:27;;;;;;;66.30;9.80;;;;;;;;;;5044313;28;20199;-57
2022/03/04 06:56:53;;;;;;;71.73;10.53;;;;;;;;;;5051903;28;20422;-57
2022/03/04 06:59:19;;;;;;;62.00;9.63;;;;;;;;;;5051130;28;20194;-57
2022/03/04 07:01:45;;;;;;;58.83;8.90;;;;;;;;;;5050410;28;20717;-57
2022/03/04 07:04:11;;;;;;;74.47;11.57;;;;;;;;;;5051556;28;21460;-56
2022/03/04 07:06:37;;;;;;;55.43;8.90;;;;;;;;;;5037811;28;20253;-56
2022/03/04 07:09:03;;;;;;;77.17;12.10;;;;;;;;;;5044942;28;20182;-56
2022/03/04 07:11:29;;;;;;;115.00;18.33;;;;;;;;;;5038973;28;20187;-57
2022/03/04 07:13:55;;;;;;;62.97;9.37;;;;;;;;;;5045500;28;20233;-56
2022/03/04 07:16:21;;;;;;;78.30;11.93;;;;;;;;;;5042806;28;20196;-57
2022/03/04 07:18:47;;;;;;;74.77;10.93;;;;;;;;;;5052031;28;20202;-57
2022/03/04 07:21:14;;;;;;;92.10;13.77;;;;;;;;;;5040926;28;20596;-58
2022/03/04 07:23:40;;;;;;;301.43;46.90;;;;;;;;;;5029869;28;20193;-56
2022/03/04 07:26:09;;;;;;;94.97;14.67;;;;;;;;;;5037910;28;20214;-56
2022/03/04 07:28:35;;;;;;;51.30;7.70;;;;;;;;;;5045298;28;20182;-55
2022/03/04 07:31:01;;;;;;;49.70;7.40;;;;;;;;;;5039521;28;20189;-56
2022/03/04 07:33:27;;;;;;;118.50;17.23;;;;;;;;;;5050403;28;20227;-56
2022/03/04 07:35:53;;;;;;;78.13;11.10;;;;;;;;;;5047746;28;20203;-55
2022/03/04 07:38:19;;;;;;;65.63;9.77;;;;;;;;;;5052336;28;20198;-55
2022/03/04 07:40:46;;;;;;;62.83;9.63;;;;;;;;;;5050313;28;20187;-56
2022/03/04 07:43:12;;;;;;;98.43;14.60;;;;;;;;;;5053662;28;20200;-57
2022/03/04 07:45:38;;;;;;;101.90;14.33;;;;;;;;;;5047825;28;20281;-56
2022/03/04 07:48:04;;;;;;;159.87;23.47;;;;;;;;;;5033644;28;20270;-55
2022/03/04 07:50:30;;;;;;;180.07;27.23;;;;;;;;;;5030354;28;20488;-56
2022/03/04 07:52:56;;;;;;;113.77;17.07;;;;;;;;;;5038883;28;20178;-56
2022/03/04 07:55:26;;;;;;;103.87;15.63;;;;;;;;;;5033914;28;20429;-56
2022/03/04 07:57:53;;;;;;;160.33;24.23;;;;;;;;;;5012311;28;20445;-55
2022/03/04 08:00:24;;;;;;;178.93;26.40;;;;;;;;;;5022425;28;20198;-55
2022/03/04 08:02:50;;;;;;;97.83;14.50;;;;;;;;;;5038663;28;20209;-55
2022/03/04 08:05:16;;;;;;;132.37;20.10;;;;;;;;;;5033854;28;20521;-56
2022/03/04 08:07:42;;;;;;;97.27;14.30;;;;;;;;;;5038111;28;20187;-56
2022/03/04 08:10:09;;;;;;;105.23;16.10;;;;;;;;;;5038821;28;20199;-56
2022/03/04 08:12:35;;;;;;;86.17;12.90;;;;;;;;;;5036277;28;20186;-56
2022/03/04 08:15:01;;;;;;;100.50;15.33;;;;;;;;;;5035074;28;20207;-55
2022/03/04 08:17:30;;;;;;;77.40;11.83;;;;;;;;;;5041306;28;21160;-56
2022/03/04 08:19:56;;;;;;;112.30;16.53;;;;;;;;;;5036389;28;20274;-56
2022/03/04 08:22:22;;;;;;;71.43;10.60;;;;;;;;;;5044621;28;20304;-56
2022/03/04 08:24:48;;;;;;;61.37;8.97;;;;;;;;;;5053990;28;20289;-56
2022/03/04 08:27:14;;;;;;;78.30;12.23;;;;;;;;;;5049395;28;20264;-56
2022/03/04 08:29:40;;;;;;;96.13;14.47;;;;;;;;;;5052673;28;20604;-57
2022/03/04 08:32:06;;;;;;;55.50;8.37;;;;;;;;;;5037425;28;20655;-56
2022/03/04 08:34:32;;;;;;;89.03;13.70;;;;;;;;;;5040921;28;20196;-56
2022/03/04 08:36:58;;;;;;;40.47;6.27;;;;;;;;;;5053512;28;20179;-56
2022/03/04 08:39:24;;;;;;;67.53;9.67;;;;;;;;;;5042029;28;20228;-56
2022/03/04 08:41:50;;;;;;;107.67;15.77;;;;;;;;;;5040827;28;23095;-56
2022/03/04 08:44:16;;;;;;;52.27;7.67;;;;;;;;;;5046940;28;20199;-57
2022/03/04 08:46:42;;;;;;;93.20;14.47;;;;;;;;;;5037775;28;20682;-56
2022/03/04 08:49:09;;;;;;;52.20;7.97;;;;;;;;;;5050501;28;20206;-57
2022/03/04 08:51:35;;;;;;;51.27;7.93;;;;;;;;;;5044023;28;20184;-60
2022/03/04 08:54:02;;;;;;;60.40;9.07;;;;;;;;;;5059878;28;20229;-58
2022/03/04 08:56:28;;;;;;;81.97;13.47;;;;;;;;;;5045083;28;20525;-56
2022/03/04 08:58:54;;;;;;;106.73;16.70;;;;;;;;;;5044342;28;20713;-56
2022/03/04 09:01:20;;;;;;;130.77;20.43;;;;;;;;;;5020724;28;20224;-56
2022/03/04 09:03:46;;;;;;;64.47;9.63;;;;;;;;;;5047272;28;20225;-56
2022/03/04 09:06:12;;;;;;;76.57;12.03;;;;;;;;;;5045591;28;20684;-57
2022/03/04 09:08:38;;;;;;;116.00;17.90;;;;;;;;;;5041700;28;20187;-56
2022/03/04 09:11:04;;;;;;;92.33;13.57;;;;;;;;;;5043098;28;20688;-58
2022/03/04 09:13:32;;;;;;;71.03;9.33;;;;;;;;;;5067022;28;20543;-57
2022/03/04 09:15:58;;;;;;;38.30;5.40;;;;;;;;;;5069192;28;20209;-57
2022/03/04 09:18:24;;;;;;;51.90;7.20;;;;;;;;;;5069914;28;20186;-58
2022/03/04 09:20:50;;;;;;;43.50;6.13;;;;;;;;;;5065851;28;20262;-57
2022/03/04 09:23:16;;;;;;;36.33;5.20;;;;;;;;;;5069142;28;20210;-57
2022/03/04 09:25:42;;;;;;;37.00;5.40;;;;;;;;;;5066013;28;20211;-58
2022/03/04 09:28:08;;;;;;;68.40;9.07;;;;;;;;;;5064518;28;20187;-57
2022/03/04 09:30:36;;;;;;;44.10;6.23;;;;;;;;;;5067533;28;20186;-57
2022/03/04 09:33:02;;;;;;;46.43;6.60;;;;;;;;;;5066086;28;20194;-57
2022/03/04 09:35:28;;;;;;;45.20;6.70;;;;;;;;;;5065300;28;20206;-57
2022/03/04 09:37:54;;;;;;;45.07;6.43;;;;;;;;;;5048493;28;20186;-56
2022/03/04 09:40:20;;;;;;;34.90;5.03;;;;;;;;;;5063318;28;20455;-58
2022/03/04 09:42:46;;;;;;;56.73;8.13;;;;;;;;;;5065950;28;20704;-56
2022/03/04 09:45:12;;;;;;;45.57;6.57;;;;;;;;;;5065236;28;20207;-58
2022/03/04 09:47:40;;;;;;;52.97;7.60;;;;;;;;;;5046346;28;20175;-57
2022/03/04 09:50:06;;;;;;;62.37;8.40;;;;;;;;;;5071982;28;20201;-57
2022/03/04 09:52:32;;;;;;;68.23;9.10;;;;;;;;;;5053536;28;20276;-57
2022/03/04 09:54:59;;;;;;;57.90;8.10;;;;;;;;;;5063777;28;20363;-57
2022/03/04 09:57:26;;;;;;;59.67;8.27;;;;;;;;;;5063772;28;20184;-58
2022/03/04 09:59:52;;;;;;;44.40;6.17;;;;;;;;;;5072877;28;20194;-56
2022/03/04 10:02:19;;;;;;;58.87;8.43;;;;;;;;;;5065993;28;20187;-57
2022/03/04 10:04:45;;;;;;;60.07;8.83;;;;;;;;;;5063815;28;20426;-57
2022/03/04 10:07:11;;;;;;;51.07;7.07;;;;;;;;;;5047434;28;20194;-58
2022/03/04 10:09:41;;;;;;;96.37;11.83;;;;;;;;;;5079905;23;20559;-57
2022/03/04 10:12:07;;;;;;;37.07;7.20;;;;;;;;;;5046097;28;20608;-54
2022/03/04 10:14:33;;;;;;;36.97;7.17;;;;;;;;;;5050228;28;20199;-53
2022/03/04 10:17:00;;;;;;;38.07;6.97;;;;;;;;;;5066575;28;20179;-54
2022/03/04 10:19:27;;;;;;;32.63;6.57;;;;;;;;;;5052976;28;20191;-54
2022/03/04 10:21:54;;;;;;;41.00;7.53;;;;;;;;;;5045153;28;20187;-54
2022/03/04 10:24:22;;;;;;;29.13;5.67;;;;;;;;;;5045417;28;20295;-52
2022/03/04 10:26:57;;;;;;;42.97;7.63;;;;;;;;;;5045330;28;20670;-55
2022/03/04 10:29:24;;;;;;;46.57;8.23;;;;;;;;;;5043631;28;20538;-54
2022/03/04 10:32:06;;;;;;;53.97;8.93;;;;;;;;;;5025161;28;20633;-53
2022/03/04 10:34:49;;;;;;;29.20;5.87;;;;;;;;;;5043334;28;20227;-54
2022/03/04 10:37:16;;;;;;;51.43;8.50;;;;;;;;;;5042179;28;20262;-54
2022/03/04 10:40:17;;;;;;;41.50;7.37;;;;;;;;;;5044479;28;20218;-53
2022/03/04 10:42:44;;;;;;;38.13;6.83;;;;;;;;;;4986021;28;20766;-56
2022/03/04 10:45:12;;;;;;;36.73;6.80;;;;;;;;;;5037968;28;20307;-54
2022/03/04 10:47:44;;;;;;;41.53;7.37;;;;;;;;;;5049426;28;20620;-54
2022/03/04 10:50:10;;;;;;;21.67;4.93;;;;;;;;;;5049422;28;20183;-55
2022/03/04 10:52:47;;;;;;;32.53;6.20;;;;;;;;;;5049535;28;20176;-55
2022/03/04 10:55:13;;;;;;;29.00;5.53;;;;;;;;;;5050362;28;20209;-55
2022/03/04 10:57:42;;;;;;;25.07;5.23;;;;;;;;;;5031204;28;20184;-55
2022/03/04 11:00:08;;;;;;;31.40;6.07;;;;;;;;;;5050346;28;20616;-54
2022/03/04 11:02:45;;;;;;;30.13;6.07;;;;;;;;;;5048014;28;20179;-55
2022/03/04 11:05:11;;;;;;;40.53;7.37;;;;;;;;;;5048401;28;20217;-54
2022/03/04 11:07:38;;;;;;;40.63;7.43;;;;;;;;;;5067735;28;20333;-54
2022/03/04 11:10:04;;;;;;;32.10;6.50;;;;;;;;;;5067745;28;20673;-55
2022/03/04 11:12:30;;;;;;;44.00;7.53;;;;;;;;;;5048724;28;20172;-54
2022/03/04 11:14:57;;;;;;;63.87;10.27;;;;;;;;;;5046048;28;20206;-52
2022/03/04 11:17:24;;;;;;;43.90;7.73;;;;;;;;;;5044480;28;20183;-55
2022/03/04 11:19:51;;;;;;;35.53;6.77;;;;;;;;;;5047732;28;20246;-54
2022/03/04 11:22:17;;;;;;;31.73;5.90;;;;;;;;;;5047598;28;20176;-54
2022/03/04 11:24:43;;;;;;;28.50;5.47;;;;;;;;;;5047939;28;20283;-55
2022/03/04 11:27:10;;;;;;;57.10;9.93;;;;;;;;;;5042399;28;20202;-51
2022/03/04 11:29:37;;;;;;;63.07;11.00;;;;;;;;;;5032913;28;20651;-51
2022/03/04 11:32:05;;;;;;;54.83;9.43;;;;;;;;;;5037545;28;20280;-52
2022/03/04 11:34:34;;;;;;;39.37;6.93;;;;;;;;;;5024326;28;20215;-54
2022/03/04 11:37:01;;;;;;;21.67;4.43;;;;;;;;;;5028880;28;20176;-54
2022/03/04 11:39:27;;;;;;;30.50;5.87;;;;;;;;;;5041841;28;20202;-54
2022/03/04 11:41:53;;;;;;;38.83;6.87;;;;;;;;;;5048288;28;20180;-55
2022/03/04 11:44:19;;;;;;;41.73;7.13;;;;;;;;;;5047965;28;20195;-54
2022/03/04 11:46:49;;;;;;;38.77;6.70;;;;;;;;;;5048328;28;20260;-54
2022/03/04 11:49:30;;;;;;;43.80;7.47;;;;;;;;;;5048192;28;20511;-55
2022/03/04 11:52:08;;;;;;;38.87;6.83;;;;;;;;;;5047998;28;20241;-54
2022/03/04 11:54:36;;;;;;;46.67;8.13;;;;;;;;;;5048029;28;20365;-55
2022/03/04 11:57:15;;;;;;;35.57;6.57;;;;;;;;;;5047919;28;20188;-52
2022/03/04 11:59:48;;;;;;;37.23;6.80;;;;;;;;;;5047975;28;20171;-55
2022/03/04 12:02:18;;;;;;;27.07;5.63;;;;;;;;;;5047935;28;20370;-55
2022/03/04 12:04:46;;;;;;;40.83;7.17;;;;;;;;;;5047300;28;20257;-55
2022/03/04 12:07:11;;;;;;;45.00;7.80;;;;;;;;;;5047438;28;20203;-53
2022/03/04 12:09:39;;;;;;;41.93;7.43;;;;;;;;;;5047709;28;20211;-55
2022/03/04 12:12:24;;;;;;;43.90;7.40;;;;;;;;;;5047948;28;20362;-55
2022/03/04 12:15:29;;;;;;;35.80;6.87;;;;;;;;;;5047576;28;20525;-55
2022/03/04 12:17:59;;;;;;;41.57;7.43;;;;;;;;;;4966238;28;20303;-53
2022/03/04 12:20:31;;;;;;;54.27;8.80;;;;;;;;;;4963753;28;20185;-54
2022/03/04 12:23:00;;;;;;;34.60;6.70;;;;;;;;;;5009113;28;20196;-53
2022/03/04 12:25:45;;;;;;;34.97;6.60;;;;;;;;;;5047120;28;20207;-56
2022/03/04 12:28:15;;;;;;;21.10;4.70;;;;;;;;;;5047051;28;20172;-55
2022/03/04 12:30:41;;;;;;;32.53;6.17;;;;;;;;;;5047294;28;20194;-52
2022/03/04 12:33:08;;;;;;;39.67;7.10;;;;;;;;;;5046935;28;20179;-52
2022/03/04 12:35:34;;;;;;;39.33;6.73;;;;;;;;;;5047430;28;20223;-54
2022/03/04 12:38:03;;;;;;;39.17;6.77;;;;;;;;;;5047445;28;20681;-55
2022/03/04 12:40:29;;;;;;;30.30;5.97;;;;;;;;;;5047323;28;20240;-55
2022/03/04 12:42:56;;;;;;;39.80;7.37;;;;;;;;;;5046671;28;20210;-55
2022/03/04 12:45:22;;;;;;;39.17;6.73;;;;;;;;;;5029821;28;20235;-52
2022/03/04 12:47:50;;;;;;;41.90;6.93;;;;;;;;;;5025616;28;20176;-54
2022/03/04 12:50:17;;;;;;;33.10;6.27;;;;;;;;;;5047361;28;20274;-55
2022/03/04 12:52:43;;;;;;;36.83;6.53;;;;;;;;;;5047212;28;20349;-54
2022/03/04 12:55:09;;;;;;;40.27;7.20;;;;;;;;;;5047273;28;20203;-53
2022/03/04 12:57:36;;;;;;;43.73;7.30;;;;;;;;;;5047326;28;20176;-54
2022/03/04 13:00:03;;;;;;;32.67;6.07;;;;;;;;;;5047387;28;20321;-54
2022/03/04 13:02:36;;;;;;;43.40;7.77;;;;;;;;;;5046878;28;20236;-53
2022/03/04 13:05:03;;;;;;;43.07;7.40;;;;;;;;;;5046795;28;20203;-55
2022/03/04 13:07:29;;;;;;;41.00;7.07;;;;;;;;;;5046951;28;20266;-55
2022/03/04 13:09:57;;;;;;;50.97;8.37;;;;;;;;;;5045630;28;20512;-55
2022/03/04 13:12:24;;;;;;;38.73;6.80;;;;;;;;;;5047226;28;20160;-56
2022/03/04 13:14:50;;;;;;;47.77;8.13;;;;;;;;;;5047300;28;20195;-53
2022/03/04 13:17:16;;;;;;;39.87;7.30;;;;;;;;;;5046788;28;20354;-53
2022/03/04 13:19:43;;;;;;;45.83;8.07;;;;;;;;;;5046960;28;20717;-53
2022/03/04 13:22:14;;;;;;;38.97;6.77;;;;;;;;;;5046802;28;20221;-56
2022/03/04 13:24:41;;;;;;;41.70;7.33;;;;;;;;;;5046543;28;20191;-56
2022/03/04 13:27:08;;;;;;;43.60;7.90;;;;;;;;;;5046552;28;20200;-55
2022/03/04 13:29:35;;;;;;;52.47;8.63;;;;;;;;;;5045057;28;20222;-56
2022/03/04 13:32:24;;;;;;;33.40;6.50;;;;;;;;;;5046722;28;20171;-56
2022/03/04 13:35:00;;;;;;;47.20;8.40;;;;;;;;;;5035238;28;20216;-56
2022/03/04 13:37:28;;;;;;;43.30;7.97;;;;;;;;;;5046205;28;20524;-56
2022/03/04 13:39:58;;;;;;;40.67;7.17;;;;;;;;;;5046700;28;20208;-56
2022/03/04 13:42:25;;;;;;;40.97;7.53;;;;;;;;;;5045935;28;20639;-54
2022/03/04 13:44:54;;;;;;;54.43;8.97;;;;;;;;;;5046320;28;20187;-52
2022/03/04 13:47:31;;;;;;;38.43;7.27;;;;;;;;;;5046477;28;20270;-55
2022/03/04 13:49:57;;;;;;;38.50;7.03;;;;;;;;;;5046558;28;20254;-55
2022/03/04 13:52:23;;;;;;;41.97;7.40;;;;;;;;;;5046028;28;20639;-55
2022/03/04 13:54:50;;;;;;;57.90;9.03;;;;;;;;;;5046412;28;20508;-55
2022/03/04 13:57:30;;;;;;;51.60;8.40;;;;;;;;;;5042151;28;20180;-52
2022/03/04 14:00:00;;;;;;;51.20;8.30;;;;;;;;;;5039773;28;20188;-52
2022/03/04 14:02:26;;;;;;;52.20;8.80;;;;;;;;;;5035214;28;20179;-52
2022/03/04 14:04:56;;;;;;;41.93;7.57;;;;;;;;;;5041375;28;20203;-56
2022/03/04 14:07:22;;;;;;;39.73;7.27;;;;;;;;;;5051406;28;20183;-55
2022/03/04 14:09:55;;;;;;;59.43;10.13;;;;;;;;;;5065481;28;20183;-54
2022/03/04 14:12:21;;;;;;;53.70;9.27;;;;;;;;;;5064282;28;20179;-55
2022/03/04 14:14:47;;;;;;;38.63;7.53;;;;;;;;;;5066052;28;20256;-55
2022/03/04 14:17:14;;;;;;;42.73;7.73;;;;;;;;;;5068867;28;20185;-55
2022/03/04 14:19:40;;;;;;;50.77;8.67;;;;;;;;;;5069144;28;20709;-55
2022/03/04 14:22:06;;;;;;;46.50;8.20;;;;;;;;;;5068843;28;20197;-55